createdAt,value
2023-03-11T00:02:59.761Z,5.70
2023-03-11T00:13:04.142Z,5.70
2023-03-11T00:23:10.451Z,5.70
2023-03-11T00:33:15.883Z,5.60
2023-03-11T00:43:20.818Z,5.60
2023-03-11T00:53:24.231Z,5.40
2023-03-11T01:03:29.349Z,5.60
2023-03-11T01:13:34.446Z,5.70
2023-03-11T01:23:40.304Z,5.90
2023-03-11T01:33:43.842Z,6.20
2023-03-11T01:43:55.242Z,6.10
2023-03-11T01:54:07.077Z,6.30
2023-03-11T02:04:12.220Z,6.50
2023-03-11T02:14:15.819Z,6.80
2023-03-11T02:24:29.421Z,6.90
2023-03-11T02:34:37.392Z,6.80
2023-03-11T02:44:44.007Z,6.60
2023-03-11T02:54:48.980Z,6.60
2023-03-11T03:04:52.478Z,6.50
2023-03-11T03:14:58.151Z,6.40
2023-03-11T03:25:02.355Z,6.30
2023-03-11T03:35:10.213Z,6.00
2023-03-11T03:45:45.985Z,5.90
2023-03-11T03:55:50.993Z,5.80
2023-03-11T04:05:56.532Z,5.90
2023-03-11T04:16:01.503Z,5.80
2023-03-11T04:26:06.056Z,5.70
2023-03-11T04:36:14.403Z,5.60
2023-03-11T04:46:18.710Z,5.50
2023-03-11T04:56:23.719Z,5.50
2023-03-11T05:06:27.749Z,5.50
2023-03-11T05:16:32.733Z,5.20
2023-03-11T05:26:37.036Z,5.00
2023-03-11T05:36:42.304Z,4.70
2023-03-11T05:46:46.100Z,4.40
2023-03-11T05:56:51.103Z,4.20
2023-03-11T06:06:56.399Z,4.10
2023-03-11T06:17:05.804Z,3.90
2023-03-11T06:27:11.330Z,3.60
2023-03-11T06:37:19.064Z,3.30
2023-03-11T06:47:23.726Z,3.50
2023-03-11T06:57:29.532Z,3.50
2023-03-11T07:07:35.142Z,3.40
2023-03-11T07:17:41.413Z,3.30
2023-03-11T07:27:45.850Z,3.10
2023-03-11T07:37:50.693Z,3.00
2023-03-11T07:47:54.091Z,2.70
2023-03-11T07:57:58.903Z,2.70
2023-03-11T08:08:02.286Z,2.40
2023-03-11T08:18:08.273Z,2.30
2023-03-11T08:28:13.037Z,2.40
2023-03-11T08:38:17.834Z,3.50
2023-03-11T08:48:21.267Z,3.30
2023-03-11T08:58:26.076Z,4.10
2023-03-11T09:08:29.554Z,5.20
2023-03-11T09:18:34.437Z,5.70
2023-03-11T09:28:37.906Z,4.50
2023-03-11T09:38:43.179Z,4.10
2023-03-11T09:48:50.723Z,4.10
2023-03-11T09:58:58.790Z,3.70
2023-03-11T10:09:08.574Z,3.80
2023-03-11T10:19:26.124Z,3.50
2023-03-11T10:29:32.296Z,3.90
2023-03-11T10:39:38.089Z,3.20
2023-03-11T10:49:41.500Z,2.70
2023-03-11T10:59:51.848Z,2.60
2023-03-11T11:10:18.145Z,2.40
2023-03-11T11:20:25.121Z,1.80
2023-03-11T11:30:30.048Z,1.50
2023-03-11T11:40:35.469Z,1.20
2023-03-11T11:50:43.758Z,1.00
2023-03-11T12:01:18.294Z,0.90
2023-03-11T12:11:28.211Z,0.70
2023-03-11T12:22:10.551Z,0.60
2023-03-11T12:32:26.394Z,0.60
2023-03-11T12:42:41.447Z,0.50
2023-03-11T12:52:56.107Z,0.10
2023-03-11T13:03:49.149Z,0.20
2023-03-11T13:13:52.999Z,0.00
2023-03-11T13:24:51.636Z,0.10
2023-03-11T13:35:12.573Z,0.40
2023-03-11T13:45:29.509Z,0.80
2023-03-11T13:55:40.345Z,1.00
2023-03-11T14:05:48.258Z,0.60
2023-03-11T14:16:01.971Z,0.40
2023-03-11T14:26:10.623Z,0.20
2023-03-11T14:36:16.915Z,0.00
2023-03-11T14:46:28.778Z,-0.20
2023-03-11T14:56:37.725Z,-0.20
2023-03-11T15:06:45.198Z,-0.30
2023-03-11T17:30:05.454Z,-1.30
2023-03-11T17:40:11.631Z,-1.00
2023-03-11T17:50:17.572Z,-1.10
2023-03-11T18:00:23.078Z,-1.20
2023-03-11T18:10:28.339Z,-1.10
2023-03-11T18:20:32.099Z,-1.10
2023-03-11T18:30:39.941Z,-1.30
2023-03-11T18:40:44.449Z,-1.50
2023-03-11T18:50:54.321Z,-1.60
2023-03-11T19:01:08.062Z,-1.50
2023-03-11T19:11:15.906Z,-1.50
2023-03-11T19:21:20.185Z,-1.30
2023-03-11T19:31:25.345Z,-1.20
2023-03-11T19:41:29.161Z,-1.20
2023-03-11T19:51:48.589Z,-1.20
2023-03-11T20:01:53.385Z,-1.30
2023-03-11T20:11:58.490Z,-1.40
2023-03-11T20:22:02.230Z,-1.70
2023-03-11T20:32:07.549Z,-1.80
2023-03-11T20:42:11.467Z,-2.30
2023-03-11T20:52:16.816Z,-2.60
2023-03-11T21:02:20.818Z,-2.90
2023-03-11T21:12:26.446Z,-3.30
2023-03-11T21:22:30.559Z,-3.40
2023-03-11T21:32:36.131Z,-3.30
2023-03-11T21:42:40.142Z,-2.90
2023-03-11T21:52:45.504Z,-2.60
2023-03-11T22:02:49.137Z,-2.20
2023-03-11T22:12:54.310Z,-1.90
2023-03-11T22:22:58.474Z,-1.80
2023-03-11T22:33:03.824Z,-1.80
2023-03-11T22:43:07.936Z,-1.90
2023-03-11T22:53:13.899Z,-1.90
2023-03-11T23:03:17.859Z,-1.80
2023-03-11T23:13:23.072Z,-1.70
2023-03-11T23:23:27.146Z,-1.70
2023-03-11T23:33:32.460Z,-1.60
2023-03-11T23:43:36.325Z,-1.80
2023-03-11T23:53:42.203Z,-1.70
